sensor_id;sensor_type;location;lat;lon;timestamp;P1;durP1;ratioP1;P2;durP2;ratioP2
4674;SDS011;2351;50.812;12.872;2023-03-18T00:02:15;9.13;;;5.27;;
4674;SDS011;2351;50.812;12.872;2023-03-18T00:04:47;7.47;;;4.43;;
4674;SDS011;2351;50.812;12.872;2023-03-18T00:07:20;7.03;;;4.10;;
4674;SDS011;2351;50.812;12.872;2023-03-18T00:09:51;10.20;;;4.80;;
4674;SDS011;2351;50.812;12.872;2023-03-18T00:12:23;10.20;;;4.70;;
4674;SDS011;2351;50.812;12.872;2023-03-18T00:14:55;8.17;;;4.63;;
4674;SDS011;2351;50.812;12.872;2023-03-18T00:17:28;6.50;;;3.50;;
4674;SDS011;2351;50.812;12.872;2023-03-18T00:20:00;14.40;;;5.63;;
4674;SDS011;2351;50.812;12.872;2023-03-18T00:22:35;8.43;;;4.00;;
4674;SDS011;2351;50.812;12.872;2023-03-18T00:25:09;9.17;;;4.90;;
4674;SDS011;2351;50.812;12.872;2023-03-18T00:27:42;9.30;;;4.37;;
4674;SDS011;2351;50.812;12.872;2023-03-18T00:30:14;9.87;;;4.70;;
4674;SDS011;2351;50.812;12.872;2023-03-18T00:32:47;9.07;;;3.97;;
4674;SDS011;2351;50.812;12.872;2023-03-18T00:35:18;8.07;;;4.40;;
4674;SDS011;2351;50.812;12.872;2023-03-18T00:37:50;25.97;;;6.40;;
4674;SDS011;2351;50.812;12.872;2023-03-18T00:40:22;10.67;;;4.20;;
4674;SDS011;2351;50.812;12.872;2023-03-18T00:42:59;12.13;;;5.43;;
4674;SDS011;2351;50.812;12.872;2023-03-18T00:45:37;7.00;;;3.77;;
4674;SDS011;2351;50.812;12.872;2023-03-18T00:48:11;9.70;;;4.67;;
4674;SDS011;2351;50.812;12.872;2023-03-18T00:50:43;7.90;;;4.03;;
4674;SDS011;2351;50.812;12.872;2023-03-18T00:53:16;8.90;;;4.90;;
4674;SDS011;2351;50.812;12.872;2023-03-18T00:55:48;9.90;;;4.33;;
4674;SDS011;2351;50.812;12.872;2023-03-18T00:58:20;12.00;;;4.60;;
4674;SDS011;2351;50.812;12.872;2023-03-18T01:00:52;9.40;;;4.70;;
4674;SDS011;2351;50.812;12.872;2023-03-18T01:03:25;10.00;;;4.40;;
4674;SDS011;2351;50.812;12.872;2023-03-18T01:05:57;10.70;;;4.50;;
4674;SDS011;2351;50.812;12.872;2023-03-18T01:08:28;11.13;;;4.00;;
4674;SDS011;2351;50.812;12.872;2023-03-18T01:11:01;7.40;;;3.33;;
4674;SDS011;2351;50.812;12.872;2023-03-18T01:13:34;8.87;;;4.33;;
4674;SDS011;2351;50.812;12.872;2023-03-18T01:16:06;6.10;;;3.73;;
4674;SDS011;2351;50.812;12.872;2023-03-18T01:18:41;9.20;;;4.00;;
4674;SDS011;2351;50.812;12.872;2023-03-18T01:21:12;9.00;;;4.23;;
4674;SDS011;2351;50.812;12.872;2023-03-18T01:23:46;10.07;;;4.70;;
4674;SDS011;2351;50.812;12.872;2023-03-18T01:26:18;8.93;;;4.70;;
4674;SDS011;2351;50.812;12.872;2023-03-18T01:28:49;17.07;;;4.27;;
4674;SDS011;2351;50.812;12.872;2023-03-18T01:31:21;10.03;;;4.07;;
4674;SDS011;2351;50.812;12.872;2023-03-18T01:33:55;9.33;;;4.43;;
4674;SDS011;2351;50.812;12.872;2023-03-18T01:36:27;13.97;;;4.70;;
4674;SDS011;2351;50.812;12.872;2023-03-18T01:38:59;11.80;;;4.57;;
4674;SDS011;2351;50.812;12.872;2023-03-18T01:41:32;6.43;;;3.90;;
4674;SDS011;2351;50.812;12.872;2023-03-18T01:44:08;11.70;;;4.33;;
4674;SDS011;2351;50.812;12.872;2023-03-18T01:46:44;13.33;;;4.20;;
4674;SDS011;2351;50.812;12.872;2023-03-18T01:49:18;7.30;;;3.73;;
4674;SDS011;2351;50.812;12.872;2023-03-18T01:51:53;9.50;;;3.97;;
4674;SDS011;2351;50.812;12.872;2023-03-18T01:54:28;5.17;;;3.63;;
4674;SDS011;2351;50.812;12.872;2023-03-18T01:57:03;7.00;;;4.17;;
4674;SDS011;2351;50.812;12.872;2023-03-18T01:59:36;6.20;;;3.80;;
4674;SDS011;2351;50.812;12.872;2023-03-18T02:02:12;3.80;;;2.60;;
4674;SDS011;2351;50.812;12.872;2023-03-18T02:04:48;12.40;;;3.87;;
4674;SDS011;2351;50.812;12.872;2023-03-18T02:07:22;7.90;;;3.77;;
4674;SDS011;2351;50.812;12.872;2023-03-18T02:09:57;9.67;;;4.23;;
4674;SDS011;2351;50.812;12.872;2023-03-18T02:12:33;5.13;;;3.30;;
4674;SDS011;2351;50.812;12.872;2023-03-18T02:15:08;7.80;;;4.00;;
4674;SDS011;2351;50.812;12.872;2023-03-18T02:17:43;8.30;;;3.60;;
4674;SDS011;2351;50.812;12.872;2023-03-18T02:20:24;8.40;;;4.10;;
4674;SDS011;2351;50.812;12.872;2023-03-18T02:23:06;10.87;;;4.10;;
4674;SDS011;2351;50.812;12.872;2023-03-18T02:25:44;8.20;;;4.07;;
4674;SDS011;2351;50.812;12.872;2023-03-18T02:28:23;6.60;;;3.90;;
4674;SDS011;2351;50.812;12.872;2023-03-18T02:30:57;8.83;;;4.23;;
4674;SDS011;2351;50.812;12.872;2023-03-18T02:33:33;7.87;;;3.30;;
4674;SDS011;2351;50.812;12.872;2023-03-18T02:36:08;14.10;;;4.30;;
4674;SDS011;2351;50.812;12.872;2023-03-18T02:38:45;7.30;;;4.00;;
4674;SDS011;2351;50.812;12.872;2023-03-18T02:41:19;7.63;;;3.53;;
4674;SDS011;2351;50.812;12.872;2023-03-18T02:43:54;6.70;;;3.70;;
4674;SDS011;2351;50.812;12.872;2023-03-18T02:46:28;13.47;;;3.93;;
4674;SDS011;2351;50.812;12.872;2023-03-18T02:49:06;8.30;;;3.70;;
4674;SDS011;2351;50.812;12.872;2023-03-18T02:51:39;6.00;;;3.60;;
4674;SDS011;2351;50.812;12.872;2023-03-18T02:54:12;6.53;;;4.00;;
4674;SDS011;2351;50.812;12.872;2023-03-18T02:56:47;8.80;;;4.30;;
4674;SDS011;2351;50.812;12.872;2023-03-18T02:59:21;5.27;;;3.30;;
4674;SDS011;2351;50.812;12.872;2023-03-18T03:01:54;11.53;;;3.83;;
4674;SDS011;2351;50.812;12.872;2023-03-18T03:04:26;5.57;;;3.67;;
4674;SDS011;2351;50.812;12.872;2023-03-18T03:06:58;10.10;;;3.67;;
4674;SDS011;2351;50.812;12.872;2023-03-18T03:09:31;7.70;;;3.80;;
4674;SDS011;2351;50.812;12.872;2023-03-18T03:12:03;11.93;;;4.27;;
4674;SDS011;2351;50.812;12.872;2023-03-18T03:14:36;7.33;;;3.60;;
4674;SDS011;2351;50.812;12.872;2023-03-18T03:17:08;7.37;;;3.93;;
4674;SDS011;2351;50.812;12.872;2023-03-18T03:19:39;6.40;;;3.73;;
4674;SDS011;2351;50.812;12.872;2023-03-18T03:22:12;8.23;;;3.50;;
4674;SDS011;2351;50.812;12.872;2023-03-18T03:24:46;5.90;;;3.57;;
4674;SDS011;2351;50.812;12.872;2023-03-18T03:27:18;6.53;;;3.80;;
4674;SDS011;2351;50.812;12.872;2023-03-18T03:29:51;13.30;;;3.70;;
4674;SDS011;2351;50.812;12.872;2023-03-18T03:32:24;6.10;;;3.77;;
4674;SDS011;2351;50.812;12.872;2023-03-18T03:34:56;8.93;;;4.17;;
4674;SDS011;2351;50.812;12.872;2023-03-18T03:37:28;7.03;;;3.93;;
4674;SDS011;2351;50.812;12.872;2023-03-18T03:39:59;7.50;;;3.27;;
4674;SDS011;2351;50.812;12.872;2023-03-18T03:42:31;11.27;;;4.77;;
4674;SDS011;2351;50.812;12.872;2023-03-18T03:45:05;8.50;;;4.30;;
4674;SDS011;2351;50.812;12.872;2023-03-18T03:47:38;9.40;;;5.10;;
4674;SDS011;2351;50.812;12.872;2023-03-18T03:50:10;8.07;;;3.63;;
4674;SDS011;2351;50.812;12.872;2023-03-18T03:52:42;4.90;;;3.07;;
4674;SDS011;2351;50.812;12.872;2023-03-18T03:55:14;10.93;;;4.13;;
4674;SDS011;2351;50.812;12.872;2023-03-18T03:57:48;9.40;;;4.27;;
4674;SDS011;2351;50.812;12.872;2023-03-18T04:00:23;10.47;;;4.80;;
4674;SDS011;2351;50.812;12.872;2023-03-18T04:02:55;8.10;;;4.10;;
4674;SDS011;2351;50.812;12.872;2023-03-18T04:05:27;9.17;;;4.60;;
4674;SDS011;2351;50.812;12.872;2023-03-18T04:07:58;7.00;;;3.87;;
4674;SDS011;2351;50.812;12.872;2023-03-18T04:10:30;7.53;;;4.37;;
4674;SDS011;2351;50.812;12.872;2023-03-18T04:13:03;7.97;;;3.97;;
4674;SDS011;2351;50.812;12.872;2023-03-18T04:15:37;7.23;;;3.50;;
4674;SDS011;2351;50.812;12.872;2023-03-18T04:18:09;10.23;;;4.17;;
4674;SDS011;2351;50.812;12.872;2023-03-18T04:20:41;4.90;;;3.40;;
4674;SDS011;2351;50.812;12.872;2023-03-18T04:23:13;7.83;;;3.87;;
4674;SDS011;2351;50.812;12.872;2023-03-18T04:25:45;8.50;;;3.97;;
4674;SDS011;2351;50.812;12.872;2023-03-18T04:28:17;7.93;;;4.37;;
4674;SDS011;2351;50.812;12.872;2023-03-18T04:30:50;6.10;;;4.00;;
4674;SDS011;2351;50.812;12.872;2023-03-18T04:33:21;7.73;;;4.17;;
4674;SDS011;2351;50.812;12.872;2023-03-18T04:35:53;6.93;;;4.07;;
4674;SDS011;2351;50.812;12.872;2023-03-18T04:38:25;10.53;;;3.40;;
4674;SDS011;2351;50.812;12.872;2023-03-18T04:40:57;11.00;;;4.27;;
4674;SDS011;2351;50.812;12.872;2023-03-18T04:43:29;6.10;;;3.60;;
4674;SDS011;2351;50.812;12.872;2023-03-18T04:46:02;11.03;;;4.50;;
4674;SDS011;2351;50.812;12.872;2023-03-18T04:48:34;6.27;;;3.60;;
4674;SDS011;2351;50.812;12.872;2023-03-18T04:51:06;8.17;;;4.10;;
4674;SDS011;2351;50.812;12.872;2023-03-18T04:53:38;7.90;;;3.83;;
4674;SDS011;2351;50.812;12.872;2023-03-18T04:56:11;7.27;;;3.73;;
4674;SDS011;2351;50.812;12.872;2023-03-18T04:58:42;9.90;;;4.33;;
4674;SDS011;2351;50.812;12.872;2023-03-18T05:01:15;8.90;;;4.53;;
4674;SDS011;2351;50.812;12.872;2023-03-18T05:03:48;6.77;;;3.90;;
4674;SDS011;2351;50.812;12.872;2023-03-18T05:06:20;6.73;;;4.10;;
4674;SDS011;2351;50.812;12.872;2023-03-18T05:08:53;8.57;;;3.50;;
4674;SDS011;2351;50.812;12.872;2023-03-18T05:11:26;5.87;;;3.53;;
4674;SDS011;2351;50.812;12.872;2023-03-18T05:13:58;7.07;;;3.17;;
4674;SDS011;2351;50.812;12.872;2023-03-18T05:16:31;8.10;;;4.23;;
4674;SDS011;2351;50.812;12.872;2023-03-18T05:19:03;8.10;;;3.80;;
4674;SDS011;2351;50.812;12.872;2023-03-18T05:21:34;7.30;;;3.50;;
4674;SDS011;2351;50.812;12.872;2023-03-18T05:24:06;9.87;;;4.67;;
4674;SDS011;2351;50.812;12.872;2023-03-18T05:26:39;7.20;;;3.93;;
4674;SDS011;2351;50.812;12.872;2023-03-18T05:29:10;7.10;;;3.63;;
4674;SDS011;2351;50.812;12.872;2023-03-18T05:31:43;6.70;;;3.30;;
4674;SDS011;2351;50.812;12.872;2023-03-18T05:34:15;4.33;;;3.30;;
4674;SDS011;2351;50.812;12.872;2023-03-18T05:36:47;8.27;;;3.87;;
4674;SDS011;2351;50.812;12.872;2023-03-18T05:39:18;7.00;;;4.10;;
4674;SDS011;2351;50.812;12.872;2023-03-18T05:41:50;6.20;;;3.10;;
4674;SDS011;2351;50.812;12.872;2023-03-18T05:44:22;7.57;;;4.07;;
4674;SDS011;2351;50.812;12.872;2023-03-18T05:46:55;8.70;;;4.37;;
4674;SDS011;2351;50.812;12.872;2023-03-18T05:49:27;6.37;;;3.63;;
4674;SDS011;2351;50.812;12.872;2023-03-18T05:52:00;14.63;;;4.17;;
4674;SDS011;2351;50.812;12.872;2023-03-18T05:54:32;9.30;;;4.00;;
4674;SDS011;2351;50.812;12.872;2023-03-18T05:57:03;7.90;;;4.37;;
4674;SDS011;2351;50.812;12.872;2023-03-18T05:59:36;7.73;;;4.13;;
4674;SDS011;2351;50.812;12.872;2023-03-18T06:02:09;5.70;;;3.40;;
4674;SDS011;2351;50.812;12.872;2023-03-18T06:04:41;7.03;;;4.30;;
4674;SDS011;2351;50.812;12.872;2023-03-18T06:07:13;9.07;;;4.30;;
4674;SDS011;2351;50.812;12.872;2023-03-18T06:09:45;12.23;;;3.60;;
4674;SDS011;2351;50.812;12.872;2023-03-18T06:12:17;9.70;;;3.90;;
4674;SDS011;2351;50.812;12.872;2023-03-18T06:14:52;7.93;;;4.73;;
4674;SDS011;2351;50.812;12.872;2023-03-18T06:17:25;9.80;;;3.90;;
4674;SDS011;2351;50.812;12.872;2023-03-18T06:19:56;5.97;;;3.53;;
4674;SDS011;2351;50.812;12.872;2023-03-18T06:22:29;7.53;;;3.70;;
4674;SDS011;2351;50.812;12.872;2023-03-18T06:25:01;9.00;;;3.50;;
4674;SDS011;2351;50.812;12.872;2023-03-18T06:27:34;8.33;;;4.43;;
4674;SDS011;2351;50.812;12.872;2023-03-18T06:30:07;7.13;;;3.80;;
4674;SDS011;2351;50.812;12.872;2023-03-18T06:32:41;13.07;;;4.20;;
4674;SDS011;2351;50.812;12.872;2023-03-18T06:35:13;10.90;;;4.43;;
4674;SDS011;2351;50.812;12.872;2023-03-18T06:37:45;7.80;;;3.97;;
4674;SDS011;2351;50.812;12.872;2023-03-18T06:40:17;8.57;;;4.50;;
4674;SDS011;2351;50.812;12.872;2023-03-18T06:42:51;20.33;;;4.70;;
4674;SDS011;2351;50.812;12.872;2023-03-18T06:45:23;9.10;;;4.33;;
4674;SDS011;2351;50.812;12.872;2023-03-18T06:47:56;9.10;;;4.43;;
4674;SDS011;2351;50.812;12.872;2023-03-18T06:50:30;9.17;;;3.77;;
4674;SDS011;2351;50.812;12.872;2023-03-18T06:53:02;6.03;;;3.93;;
4674;SDS011;2351;50.812;12.872;2023-03-18T06:55:34;8.50;;;4.60;;
4674;SDS011;2351;50.812;12.872;2023-03-18T06:58:07;7.07;;;3.90;;
4674;SDS011;2351;50.812;12.872;2023-03-18T07:00:39;9.47;;;4.27;;
4674;SDS011;2351;50.812;12.872;2023-03-18T07:03:15;9.33;;;3.57;;
4674;SDS011;2351;50.812;12.872;2023-03-18T07:05:47;8.57;;;4.43;;
4674;SDS011;2351;50.812;12.872;2023-03-18T07:08:20;9.73;;;3.90;;
4674;SDS011;2351;50.812;12.872;2023-03-18T07:10:52;7.80;;;4.23;;
4674;SDS011;2351;50.812;12.872;2023-03-18T07:13:24;6.20;;;3.73;;
4674;SDS011;2351;50.812;12.872;2023-03-18T07:15:56;8.50;;;4.17;;
4674;SDS011;2351;50.812;12.872;2023-03-18T07:18:30;11.40;;;4.97;;
4674;SDS011;2351;50.812;12.872;2023-03-18T07:21:06;8.13;;;3.50;;
4674;SDS011;2351;50.812;12.872;2023-03-18T07:23:40;10.53;;;3.70;;
4674;SDS011;2351;50.812;12.872;2023-03-18T07:26:12;5.47;;;3.70;;
4674;SDS011;2351;50.812;12.872;2023-03-18T07:28:43;8.33;;;4.00;;
4674;SDS011;2351;50.812;12.872;2023-03-18T07:31:19;8.67;;;4.50;;
4674;SDS011;2351;50.812;12.872;2023-03-18T07:34:01;8.50;;;4.60;;
4674;SDS011;2351;50.812;12.872;2023-03-18T07:36:33;6.90;;;4.20;;
4674;SDS011;2351;50.812;12.872;2023-03-18T07:39:06;7.20;;;4.27;;
4674;SDS011;2351;50.812;12.872;2023-03-18T07:41:40;7.37;;;4.30;;
4674;SDS011;2351;50.812;12.872;2023-03-18T07:44:11;17.40;;;4.23;;
4674;SDS011;2351;50.812;12.872;2023-03-18T07:46:43;7.63;;;4.30;;
4674;SDS011;2351;50.812;12.872;2023-03-18T07:49:16;14.53;;;4.50;;
4674;SDS011;2351;50.812;12.872;2023-03-18T07:51:48;6.07;;;3.50;;
4674;SDS011;2351;50.812;12.872;2023-03-18T07:54:20;8.23;;;4.20;;
4674;SDS011;2351;50.812;12.872;2023-03-18T07:56:53;13.03;;;5.00;;
4674;SDS011;2351;50.812;12.872;2023-03-18T07:59:24;7.30;;;3.30;;
4674;SDS011;2351;50.812;12.872;2023-03-18T08:01:59;7.37;;;3.83;;
4674;SDS011;2351;50.812;12.872;2023-03-18T08:04:36;11.33;;;4.10;;
4674;SDS011;2351;50.812;12.872;2023-03-18T08:07:08;8.37;;;3.63;;
4674;SDS011;2351;50.812;12.872;2023-03-18T08:09:41;10.10;;;4.10;;
4674;SDS011;2351;50.812;12.872;2023-03-18T08:12:12;7.67;;;4.07;;
4674;SDS011;2351;50.812;12.872;2023-03-18T08:14:45;8.57;;;4.70;;
4674;SDS011;2351;50.812;12.872;2023-03-18T08:17:17;6.67;;;4.43;;
4674;SDS011;2351;50.812;12.872;2023-03-18T08:19:50;6.07;;;4.33;;
4674;SDS011;2351;50.812;12.872;2023-03-18T08:22:22;6.43;;;4.80;;
4674;SDS011;2351;50.812;12.872;2023-03-18T08:24:54;11.20;;;5.23;;
4674;SDS011;2351;50.812;12.872;2023-03-18T08:27:29;8.37;;;4.70;;
4674;SDS011;2351;50.812;12.872;2023-03-18T08:30:17;10.10;;;4.23;;
4674;SDS011;2351;50.812;12.872;2023-03-18T08:32:50;8.80;;;4.67;;
4674;SDS011;2351;50.812;12.872;2023-03-18T08:35:30;8.20;;;4.80;;
4674;SDS011;2351;50.812;12.872;2023-03-18T08:38:04;6.20;;;4.10;;
4674;SDS011;2351;50.812;12.872;2023-03-18T08:41:01;6.03;;;4.00;;
4674;SDS011;2351;50.812;12.872;2023-03-18T08:43:44;10.40;;;4.83;;
4674;SDS011;2351;50.812;12.872;2023-03-18T08:46:21;6.27;;;3.70;;
4674;SDS011;2351;50.812;12.872;2023-03-18T08:49:05;3.97;;;2.93;;
4674;SDS011;2351;50.812;12.872;2023-03-18T08:51:45;5.37;;;2.80;;
4674;SDS011;2351;50.812;12.872;2023-03-18T08:54:20;3.00;;;2.47;;
4674;SDS011;2351;50.812;12.872;2023-03-18T08:57:01;6.20;;;2.73;;
4674;SDS011;2351;50.812;12.872;2023-03-18T08:59:53;4.00;;;2.50;;
4674;SDS011;2351;50.812;12.872;2023-03-18T09:02:33;10.77;;;6.30;;
4674;SDS011;2351;50.812;12.872;2023-03-18T09:05:09;8.03;;;3.17;;
4674;SDS011;2351;50.812;12.872;2023-03-18T09:07:56;5.50;;;2.50;;
4674;SDS011;2351;50.812;12.872;2023-03-18T09:10:39;2.83;;;2.30;;
4674;SDS011;2351;50.812;12.872;2023-03-18T09:13:16;6.13;;;2.57;;
4674;SDS011;2351;50.812;12.872;2023-03-18T09:15:56;7.00;;;2.30;;
4674;SDS011;2351;50.812;12.872;2023-03-18T09:21:42;3.73;;;2.23;;
4674;SDS011;2351;50.812;12.872;2023-03-18T09:24:17;3.40;;;2.10;;
4674;SDS011;2351;50.812;12.872;2023-03-18T09:27:00;2.47;;;1.97;;
4674;SDS011;2351;50.812;12.872;2023-03-18T09:30:20;4.33;;;1.70;;
4674;SDS011;2351;50.812;12.872;2023-03-18T09:33:09;14.57;;;2.50;;
4674;SDS011;2351;50.812;12.872;2023-03-18T09:36:07;4.73;;;2.13;;
4674;SDS011;2351;50.812;12.872;2023-03-18T09:39:40;3.97;;;2.17;;
4674;SDS011;2351;50.812;12.872;2023-03-18T09:46:00;3.10;;;2.17;;
4674;SDS011;2351;50.812;12.872;2023-03-18T09:51:46;5.57;;;2.20;;
4674;SDS011;2351;50.812;12.872;2023-03-18T09:57:32;3.00;;;2.00;;
4674;SDS011;2351;50.812;12.872;2023-03-18T10:00:19;4.30;;;2.00;;
4674;SDS011;2351;50.812;12.872;2023-03-18T10:03:23;3.37;;;1.80;;
4674;SDS011;2351;50.812;12.872;2023-03-18T10:06:18;4.60;;;1.93;;
4674;SDS011;2351;50.812;12.872;2023-03-18T10:09:00;6.93;;;1.63;;
4674;SDS011;2351;50.812;12.872;2023-03-18T10:11:49;1.83;;;1.63;;
4674;SDS011;2351;50.812;12.872;2023-03-18T10:14:53;2.23;;;1.50;;
4674;SDS011;2351;50.812;12.872;2023-03-18T10:21:15;3.70;;;1.73;;
4674;SDS011;2351;50.812;12.872;2023-03-18T10:24:36;2.00;;;1.80;;
4674;SDS011;2351;50.812;12.872;2023-03-18T10:27:23;6.00;;;1.77;;
4674;SDS011;2351;50.812;12.872;2023-03-18T10:30:16;1.80;;;1.53;;
4674;SDS011;2351;50.812;12.872;2023-03-18T10:33:06;2.50;;;1.70;;
4674;SDS011;2351;50.812;12.872;2023-03-18T10:35:44;7.30;;;2.20;;
4674;SDS011;2351;50.812;12.872;2023-03-18T10:38:32;7.80;;;1.60;;
4674;SDS011;2351;50.812;12.872;2023-03-18T10:41:15;1.97;;;1.57;;
4674;SDS011;2351;50.812;12.872;2023-03-18T10:43:54;1.90;;;1.60;;
4674;SDS011;2351;50.812;12.872;2023-03-18T10:46:31;3.60;;;1.60;;
4674;SDS011;2351;50.812;12.872;2023-03-18T10:49:08;4.33;;;1.70;;
4674;SDS011;2351;50.812;12.872;2023-03-18T10:51:48;2.57;;;1.70;;
4674;SDS011;2351;50.812;12.872;2023-03-18T10:54:38;3.30;;;2.20;;
4674;SDS011;2351;50.812;12.872;2023-03-18T10:57:13;1.67;;;1.20;;
4674;SDS011;2351;50.812;12.872;2023-03-18T10:59:52;2.03;;;1.50;;
4674;SDS011;2351;50.812;12.872;2023-03-18T11:02:33;4.13;;;1.90;;
4674;SDS011;2351;50.812;12.872;2023-03-18T11:05:14;2.50;;;1.30;;
4674;SDS011;2351;50.812;12.872;2023-03-18T11:07:55;1.30;;;1.00;;
4674;SDS011;2351;50.812;12.872;2023-03-18T11:10:31;1.40;;;1.30;;
4674;SDS011;2351;50.812;12.872;2023-03-18T11:13:06;3.50;;;1.60;;
4674;SDS011;2351;50.812;12.872;2023-03-18T11:15:49;1.90;;;1.37;;
4674;SDS011;2351;50.812;12.872;2023-03-18T11:18:27;2.90;;;1.73;;
4674;SDS011;2351;50.812;12.872;2023-03-18T11:21:06;1.67;;;1.17;;
4674;SDS011;2351;50.812;12.872;2023-03-18T11:23:48;3.23;;;1.50;;
4674;SDS011;2351;50.812;12.872;2023-03-18T11:26:51;6.10;;;2.20;;
4674;SDS011;2351;50.812;12.872;2023-03-18T11:29:25;2.90;;;2.00;;
4674;SDS011;2351;50.812;12.872;2023-03-18T11:32:03;2.10;;;1.47;;
4674;SDS011;2351;50.812;12.872;2023-03-18T11:34:35;1.10;;;1.00;;
4674;SDS011;2351;50.812;12.872;2023-03-18T11:37:10;22.73;;;1.37;;
4674;SDS011;2351;50.812;12.872;2023-03-18T11:39:42;2.20;;;1.10;;
4674;SDS011;2351;50.812;12.872;2023-03-18T11:42:26;6.27;;;1.70;;
4674;SDS011;2351;50.812;12.872;2023-03-18T11:45:26;4.03;;;1.23;;
4674;SDS011;2351;50.812;12.872;2023-03-18T11:48:10;3.10;;;1.50;;
4674;SDS011;2351;50.812;12.872;2023-03-18T11:50:56;2.30;;;1.10;;
4674;SDS011;2351;50.812;12.872;2023-03-18T11:53:55;3.43;;;1.63;;
4674;SDS011;2351;50.812;12.872;2023-03-18T11:56:39;2.97;;;1.60;;
4674;SDS011;2351;50.812;12.872;2023-03-18T11:59:21;3.90;;;2.03;;
4674;SDS011;2351;50.812;12.872;2023-03-18T12:02:13;2.57;;;1.70;;
4674;SDS011;2351;50.812;12.872;2023-03-18T12:05:04;1.33;;;1.23;;
4674;SDS011;2351;50.812;12.872;2023-03-18T12:07:55;1.87;;;1.10;;
4674;SDS011;2351;50.812;12.872;2023-03-18T12:10:39;4.83;;;1.53;;
4674;SDS011;2351;50.812;12.872;2023-03-18T12:13:29;2.37;;;1.33;;
4674;SDS011;2351;50.812;12.872;2023-03-18T12:16:15;1.77;;;1.30;;
4674;SDS011;2351;50.812;12.872;2023-03-18T12:22:09;3.20;;;1.30;;
4674;SDS011;2351;50.812;12.872;2023-03-18T12:25:06;1.43;;;1.20;;
4674;SDS011;2351;50.812;12.872;2023-03-18T12:27:59;1.80;;;1.33;;
4674;SDS011;2351;50.812;12.872;2023-03-18T12:30:48;4.03;;;1.70;;
4674;SDS011;2351;50.812;12.872;2023-03-18T12:33:43;3.70;;;1.40;;
4674;SDS011;2351;50.812;12.872;2023-03-18T12:36:36;1.17;;;1.07;;
4674;SDS011;2351;50.812;12.872;2023-03-18T12:39:25;0.87;;;0.87;;
4674;SDS011;2351;50.812;12.872;2023-03-18T12:42:22;2.37;;;1.10;;
4674;SDS011;2351;50.812;12.872;2023-03-18T12:45:07;3.43;;;1.60;;
4674;SDS011;2351;50.812;12.872;2023-03-18T12:47:41;3.57;;;1.70;;
4674;SDS011;2351;50.812;12.872;2023-03-18T12:50:18;2.17;;;1.50;;
4674;SDS011;2351;50.812;12.872;2023-03-18T12:52:55;3.90;;;2.50;;
4674;SDS011;2351;50.812;12.872;2023-03-18T12:55:33;1.47;;;1.20;;
4674;SDS011;2351;50.812;12.872;2023-03-18T12:58:09;1.47;;;1.37;;
4674;SDS011;2351;50.812;12.872;2023-03-18T13:00:44;3.40;;;1.67;;
4674;SDS011;2351;50.812;12.872;2023-03-18T13:03:25;4.93;;;1.20;;
4674;SDS011;2351;50.812;12.872;2023-03-18T13:06:03;0.80;;;0.80;;
4674;SDS011;2351;50.812;12.872;2023-03-18T13:11:38;2.20;;;0.80;;
4674;SDS011;2351;50.812;12.872;2023-03-18T13:14:19;3.43;;;1.17;;
4674;SDS011;2351;50.812;12.872;2023-03-18T13:16:56;0.97;;;0.80;;
4674;SDS011;2351;50.812;12.872;2023-03-18T13:19:29;4.97;;;1.30;;
4674;SDS011;2351;50.812;12.872;2023-03-18T13:22:03;4.93;;;1.27;;
4674;SDS011;2351;50.812;12.872;2023-03-18T13:24:54;2.60;;;1.23;;
4674;SDS011;2351;50.812;12.872;2023-03-18T13:27:38;3.90;;;1.23;;
4674;SDS011;2351;50.812;12.872;2023-03-18T13:30:23;3.33;;;1.47;;
4674;SDS011;2351;50.812;12.872;2023-03-18T13:33:05;3.27;;;1.80;;
4674;SDS011;2351;50.812;12.872;2023-03-18T13:36:00;1.43;;;0.97;;
4674;SDS011;2351;50.812;12.872;2023-03-18T13:38:51;2.90;;;1.50;;
4674;SDS011;2351;50.812;12.872;2023-03-18T13:41:34;3.33;;;1.03;;
4674;SDS011;2351;50.812;12.872;2023-03-18T13:44:17;1.40;;;1.30;;
4674;SDS011;2351;50.812;12.872;2023-03-18T13:46:58;3.33;;;1.10;;
4674;SDS011;2351;50.812;12.872;2023-03-18T13:49:33;3.77;;;1.33;;
4674;SDS011;2351;50.812;12.872;2023-03-18T13:52:20;2.23;;;1.20;;
4674;SDS011;2351;50.812;12.872;2023-03-18T13:54:57;1.37;;;1.27;;
4674;SDS011;2351;50.812;12.872;2023-03-18T13:57:45;2.10;;;1.30;;
4674;SDS011;2351;50.812;12.872;2023-03-18T14:00:30;3.93;;;0.87;;
4674;SDS011;2351;50.812;12.872;2023-03-18T14:03:15;1.27;;;1.17;;
4674;SDS011;2351;50.812;12.872;2023-03-18T14:05:52;3.30;;;1.23;;
4674;SDS011;2351;50.812;12.872;2023-03-18T14:08:51;2.13;;;1.20;;
4674;SDS011;2351;50.812;12.872;2023-03-18T14:14:38;3.23;;;1.50;;
4674;SDS011;2351;50.812;12.872;2023-03-18T14:17:30;1.33;;;1.07;;
4674;SDS011;2351;50.812;12.872;2023-03-18T14:20:15;1.73;;;1.20;;
4674;SDS011;2351;50.812;12.872;2023-03-18T14:22:54;0.83;;;0.83;;
4674;SDS011;2351;50.812;12.872;2023-03-18T14:25:47;2.03;;;1.10;;
4674;SDS011;2351;50.812;12.872;2023-03-18T14:28:23;13.23;;;1.30;;
4674;SDS011;2351;50.812;12.872;2023-03-18T14:33:56;2.27;;;1.27;;
4674;SDS011;2351;50.812;12.872;2023-03-18T14:37:07;2.73;;;1.27;;
4674;SDS011;2351;50.812;12.872;2023-03-18T14:39:48;1.97;;;1.10;;
4674;SDS011;2351;50.812;12.872;2023-03-18T14:42:33;2.47;;;1.60;;
4674;SDS011;2351;50.812;12.872;2023-03-18T14:45:22;4.10;;;1.70;;
4674;SDS011;2351;50.812;12.872;2023-03-18T14:47:56;2.53;;;1.30;;
4674;SDS011;2351;50.812;12.872;2023-03-18T14:50:34;5.10;;;1.60;;
4674;SDS011;2351;50.812;12.872;2023-03-18T14:53:13;1.53;;;1.30;;
4674;SDS011;2351;50.812;12.872;2023-03-18T14:55:51;10.67;;;1.30;;
4674;SDS011;2351;50.812;12.872;2023-03-18T14:58:25;2.60;;;1.70;;
4674;SDS011;2351;50.812;12.872;2023-03-18T15:01:06;1.93;;;1.00;;
4674;SDS011;2351;50.812;12.872;2023-03-18T15:03:40;2.53;;;1.20;;
4674;SDS011;2351;50.812;12.872;2023-03-18T15:06:17;2.60;;;1.13;;
4674;SDS011;2351;50.812;12.872;2023-03-18T15:08:51;2.97;;;1.07;;
4674;SDS011;2351;50.812;12.872;2023-03-18T15:11:28;2.40;;;0.90;;
4674;SDS011;2351;50.812;12.872;2023-03-18T15:14:09;2.30;;;1.70;;
4674;SDS011;2351;50.812;12.872;2023-03-18T15:16:47;1.20;;;1.10;;
4674;SDS011;2351;50.812;12.872;2023-03-18T15:19:19;3.50;;;1.37;;
4674;SDS011;2351;50.812;12.872;2023-03-18T15:21:53;4.30;;;1.57;;
4674;SDS011;2351;50.812;12.872;2023-03-18T15:24:27;1.53;;;1.10;;
4674;SDS011;2351;50.812;12.872;2023-03-18T15:27:03;1.63;;;1.10;;
4674;SDS011;2351;50.812;12.872;2023-03-18T15:29:36;6.10;;;1.30;;
4674;SDS011;2351;50.812;12.872;2023-03-18T15:32:15;3.37;;;1.40;;
4674;SDS011;2351;50.812;12.872;2023-03-18T15:34:51;3.77;;;1.33;;
4674;SDS011;2351;50.812;12.872;2023-03-18T15:37:30;5.03;;;2.00;;
4674;SDS011;2351;50.812;12.872;2023-03-18T15:40:15;2.40;;;1.37;;
4674;SDS011;2351;50.812;12.872;2023-03-18T15:43:02;1.57;;;0.90;;
4674;SDS011;2351;50.812;12.872;2023-03-18T15:45:43;2.00;;;1.20;;
4674;SDS011;2351;50.812;12.872;2023-03-18T15:48:19;3.63;;;1.63;;
4674;SDS011;2351;50.812;12.872;2023-03-18T15:50:55;2.50;;;1.33;;
4674;SDS011;2351;50.812;12.872;2023-03-18T15:53:34;5.30;;;1.60;;
4674;SDS011;2351;50.812;12.872;2023-03-18T15:56:13;1.30;;;1.20;;
4674;SDS011;2351;50.812;12.872;2023-03-18T15:58:48;1.90;;;1.30;;
4674;SDS011;2351;50.812;12.872;2023-03-18T16:01:27;1.77;;;1.50;;
4674;SDS011;2351;50.812;12.872;2023-03-18T16:03:59;5.33;;;1.27;;
4674;SDS011;2351;50.812;12.872;2023-03-18T16:06:31;3.37;;;1.53;;
4674;SDS011;2351;50.812;12.872;2023-03-18T16:09:13;2.50;;;0.93;;
4674;SDS011;2351;50.812;12.872;2023-03-18T16:11:47;2.50;;;1.23;;
4674;SDS011;2351;50.812;12.872;2023-03-18T16:14:23;1.40;;;1.30;;
4674;SDS011;2351;50.812;12.872;2023-03-18T16:16:58;6.93;;;1.53;;
4674;SDS011;2351;50.812;12.872;2023-03-18T16:19:30;1.63;;;1.20;;
4674;SDS011;2351;50.812;12.872;2023-03-18T16:22:03;0.93;;;0.93;;
4674;SDS011;2351;50.812;12.872;2023-03-18T16:24:36;4.60;;;1.57;;
4674;SDS011;2351;50.812;12.872;2023-03-18T16:27:12;1.73;;;1.43;;
4674;SDS011;2351;50.812;12.872;2023-03-18T16:29:57;7.80;;;3.33;;
4674;SDS011;2351;50.812;12.872;2023-03-18T16:32:29;11.43;;;5.70;;